Terminal Aerodrome Forecast
Issued by NWS

Home | Current Version | Previous Version | Graphics & Text | Print | Product List | Glossary On
Versions: 1 2 3 4 5 6 7 8 9 10 11 12 13 14 15 16 17
000
FTUS43 KGRB 211500 AAB
TAFCWA
TAF AMD
KCWA 211543Z 2116/2212 20006KT 6SM BR VCSH SCT025 BKN050
      TEMPO 2117/2119 3SM TSRA BR BKN025CB
     FM211900 31012KT P6SM SCT020 BKN035
     FM212300 31013G21KT P6SM SCT025=

USA.gov is the U.S. government's official web portal to all federal, state and local government web resources and services.